Time;durP1;ratioP1;P1;durP2;ratioP2;P2;SDS_P1;SDS_P2;PMS_P1;PMS_P2;Temp;Humidity;BMP_temperature;BMP_pressure;BME280_temperature;BME280_humidity;BME280_pressure;Samples;Min_cycle;Max_cycle;Signal;HPM_P1;HPM_P2
2023/08/03 00:00:20;;;;;;;0.00;0.00;;;15.50;99.90;;;;;;5045401;28;20053;-89
2023/08/03 00:02:46;;;;;;;0.15;0.15;;;15.40;99.90;;;;;;5051149;28;20059;-88
2023/08/03 00:05:13;;;;;;;0.00;0.00;;;15.40;99.90;;;;;;5051188;28;20133;-87
2023/08/03 00:07:38;;;;;;;0.20;0.08;;;15.40;99.90;;;;;;5051371;28;20048;-88
2023/08/03 00:10:04;;;;;;;0.57;0.57;;;15.40;99.90;;;;;;5051484;28;20063;-88
2023/08/03 00:12:30;;;;;;;0.00;0.00;;;15.30;99.90;;;;;;5052737;28;20045;-88
2023/08/03 00:14:56;;;;;;;0.00;0.00;;;15.30;99.90;;;;;;5052417;28;20119;-88
2023/08/03 00:17:22;;;;;;;0.10;0.10;;;16.10;99.90;;;;;;5052109;28;20037;-89
2023/08/03 00:19:47;;;;;;;0.00;0.00;;;15.30;99.90;;;;;;5051882;28;20460;-88
2023/08/03 00:22:13;;;;;;;0.00;0.00;;;15.40;99.90;;;;;;5051993;28;20127;-89
2023/08/03 00:24:38;;;;;;;0.10;0.10;;;15.40;99.90;;;;;;5049994;28;20045;-89
2023/08/03 00:27:05;;;;;;;0.13;0.10;;;15.70;99.90;;;;;;5051451;28;20135;-90
2023/08/03 00:29:31;;;;;;;1.85;0.80;;;15.50;99.90;;;;;;5033565;28;20056;-90
2023/08/03 00:31:59;;;;;;;0.08;0.08;;;16.20;99.90;;;;;;5033589;28;20053;-90
2023/08/03 00:34:27;;;;;;;0.00;0.00;;;16.00;99.90;;;;;;5050035;28;20097;-90
2023/08/03 00:36:53;;;;;;;0.38;0.38;;;15.50;99.90;;;;;;5033089;28;20053;-90
2023/08/03 00:39:23;;;;;;;0.35;0.17;;;15.50;99.90;;;;;;5051641;28;20102;-90
2023/08/03 00:41:50;;;;;;;0.00;0.00;;;15.60;99.90;;;;;;5051151;28;20500;-91
2023/08/03 00:44:16;;;;;;;0.45;0.20;;;15.50;99.90;;;;;;5032946;28;20056;-90
2023/08/03 00:46:42;;;;;;;0.00;0.00;;;15.80;99.90;;;;;;5049979;28;20147;-90
2023/08/03 00:49:09;;;;;;;1.55;1.35;;;15.60;99.90;;;;;;5034112;28;20057;-90
2023/08/03 00:51:35;;;;;;;0.30;0.25;;;15.50;99.90;;;;;;5050102;28;20053;-90
2023/08/03 00:54:06;;;;;;;0.00;0.00;;;15.60;99.90;;;;;;5050337;28;20178;-90
2023/08/03 00:56:38;;;;;;;3.85;1.67;;;15.50;99.90;;;;;;5050478;28;20917;-90
2023/08/03 00:59:06;;;;;;;0.57;0.47;;;16.10;99.90;;;;;;5032729;28;20045;-90
2023/08/03 01:01:32;;;;;;;0.20;0.20;;;15.50;99.90;;;;;;5048206;28;20876;-90
2023/08/03 01:03:58;;;;;;;0.10;0.03;;;15.50;99.90;;;;;;5049563;28;20041;-90
2023/08/03 01:06:25;;;;;;;0.00;0.00;;;15.50;99.90;;;;;;5049641;28;20045;-90
2023/08/03 01:08:54;;;;;;;0.00;0.00;;;15.50;99.90;;;;;;5033050;28;20088;-90
2023/08/03 01:11:25;;;;;;;0.43;0.10;;;15.80;99.90;;;;;;5049188;28;20060;-90
2023/08/03 01:13:51;;;;;;;0.57;0.47;;;15.60;99.90;;;;;;5050836;28;20133;-90
2023/08/03 01:16:18;;;;;;;0.00;0.00;;;15.50;99.90;;;;;;5049381;28;20511;-90
2023/08/03 01:18:49;;;;;;;0.00;0.00;;;15.40;99.90;;;;;;5066319;28;20060;-90
2023/08/03 01:21:19;;;;;;;0.30;0.20;;;15.50;99.90;;;;;;5033136;28;20079;-90
2023/08/03 01:23:47;;;;;;;0.00;0.00;;;15.40;99.90;;;;;;5016262;28;20048;-90
2023/08/03 01:26:12;;;;;;;0.65;0.38;;;15.50;99.90;;;;;;5032542;28;20041;-90
2023/08/03 01:28:38;;;;;;;1.67;1.02;;;15.50;99.90;;;;;;5048992;28;20048;-90
2023/08/03 01:31:04;;;;;;;0.00;0.00;;;15.60;99.90;;;;;;5032730;28;20074;-90
2023/08/03 01:33:35;;;;;;;0.00;0.00;;;16.80;99.90;;;;;;5048716;28;20057;-90
2023/08/03 01:36:02;;;;;;;0.00;0.00;;;14.60;99.90;;;;;;5032322;28;20049;-90
2023/08/03 01:38:27;;;;;;;0.10;0.10;;;15.50;99.90;;;;;;5031932;28;20053;-88
2023/08/03 01:40:53;;;;;;;0.08;0.08;;;15.50;99.90;;;;;;5048318;28;20119;-89
2023/08/03 01:43:19;;;;;;;1.35;0.63;;;15.60;99.90;;;;;;5048438;28;20053;-89
2023/08/03 01:45:45;;;;;;;0.00;0.00;;;15.60;99.90;;;;;;5048579;28;20052;-89
2023/08/03 01:48:11;;;;;;;0.00;0.00;;;15.60;99.90;;;;;;5050534;28;20067;-89
2023/08/03 01:50:36;;;;;;;0.03;0.03;;;15.50;99.90;;;;;;5048906;28;20111;-89
2023/08/03 01:53:02;;;;;;;0.00;0.00;;;15.50;99.90;;;;;;5048479;28;20376;-89
2023/08/03 01:55:28;;;;;;;0.20;0.20;;;16.70;99.90;;;;;;5048967;28;20053;-89
2023/08/03 01:57:53;;;;;;;0.00;0.00;;;15.40;99.90;;;;;;5050259;28;20102;-89
2023/08/03 02:00:19;;;;;;;0.20;0.05;;;15.50;99.90;;;;;;5048373;28;20118;-88
2023/08/03 02:02:45;;;;;;;0.00;0.00;;;15.50;99.90;;;;;;5048783;28;20114;-88
2023/08/03 02:05:10;;;;;;;1.00;0.57;;;15.50;99.90;;;;;;5031775;28;20059;-88
2023/08/03 02:07:44;;;;;;;0.00;0.00;;;15.60;99.90;;;;;;5048640;28;20045;-88
2023/08/03 02:10:11;;;;;;;0.00;0.00;;;15.60;99.90;;;;;;5048286;28;20049;-89
2023/08/03 02:12:37;;;;;;;0.00;0.00;;;15.60;99.90;;;;;;5049481;28;20048;-89
2023/08/03 02:15:04;;;;;;;0.22;0.10;;;15.60;99.90;;;;;;5047787;28;20040;-89
2023/08/03 02:17:30;;;;;;;0.00;0.00;;;15.60;99.90;;;;;;5049238;28;20507;-88
2023/08/03 02:19:56;;;;;;;0.00;0.00;;;16.10;99.90;;;;;;5047691;28;20125;-88
2023/08/03 02:22:22;;;;;;;0.00;0.00;;;15.60;99.90;;;;;;5047718;28;20045;-89
2023/08/03 02:24:47;;;;;;;0.00;0.00;;;15.60;99.90;;;;;;5046849;28;20222;-89
2023/08/03 02:27:13;;;;;;;0.28;0.20;;;15.60;99.90;;;;;;5047806;28;20075;-89
2023/08/03 02:29:38;;;;;;;0.63;0.47;;;15.60;99.90;;;;;;5049787;28;20052;-89
2023/08/03 02:32:07;;;;;;;0.00;0.00;;;16.00;99.90;;;;;;5048052;28;20108;-89
2023/08/03 02:34:33;;;;;;;0.00;0.00;;;16.90;99.90;;;;;;5030754;28;20455;-89
2023/08/03 02:36:59;;;;;;;0.00;0.00;;;15.90;99.90;;;;;;5047892;28;20190;-89
2023/08/03 02:39:25;;;;;;;0.00;0.00;;;15.60;99.90;;;;;;5030838;28;20044;-88
2023/08/03 02:41:52;;;;;;;0.00;0.00;;;15.60;99.90;;;;;;5030543;28;20514;-89
2023/08/03 02:44:18;;;;;;;0.00;0.00;;;15.60;99.90;;;;;;5030848;28;20052;-89
2023/08/03 02:46:44;;;;;;;0.00;0.00;;;17.00;99.90;;;;;;5030728;28;20088;-89
2023/08/03 02:49:10;;;;;;;0.00;0.00;;;15.60;99.90;;;;;;5047154;28;20080;-89
2023/08/03 02:51:36;;;;;;;0.00;0.00;;;17.10;99.90;;;;;;5030172;28;20564;-89
2023/08/03 02:54:01;;;;;;;0.00;0.00;;;15.60;99.90;;;;;;5047070;28;20109;-89
2023/08/03 02:56:27;;;;;;;0.63;0.40;;;15.00;99.90;;;;;;5046837;28;20049;-88
2023/08/03 02:58:54;;;;;;;0.00;0.00;;;16.20;99.90;;;;;;5030399;28;20040;-88
2023/08/03 03:01:20;;;;;;;0.00;0.00;;;15.60;99.90;;;;;;5031022;28;20399;-89
2023/08/03 03:03:46;;;;;;;0.10;0.10;;;15.80;99.90;;;;;;5030244;28;20044;-88
2023/08/03 03:06:12;;;;;;;0.17;0.17;;;15.70;99.90;;;;;;5030695;28;20135;-89
2023/08/03 03:08:37;;;;;;;1.08;0.28;;;16.70;99.90;;;;;;5047403;28;20068;-88
2023/08/03 03:11:03;;;;;;;0.10;0.10;;;15.70;99.90;;;;;;5047129;28;20473;-89
2023/08/03 03:13:29;;;;;;;0.40;0.15;;;15.70;99.90;;;;;;5030680;28;20087;-89
2023/08/03 03:15:55;;;;;;;0.05;0.05;;;15.60;99.90;;;;;;5047164;28;20844;-89
2023/08/03 03:18:21;;;;;;;0.00;0.00;;;16.70;99.90;;;;;;5029825;28;20641;-89
2023/08/03 03:20:46;;;;;;;0.00;0.00;;;16.80;99.90;;;;;;5048302;28;20055;-89
2023/08/03 03:23:12;;;;;;;0.10;0.10;;;15.70;99.90;;;;;;5029807;28;20122;-89
2023/08/03 03:25:38;;;;;;;0.00;0.00;;;16.30;99.90;;;;;;5030107;28;20049;-89
2023/08/03 03:28:04;;;;;;;0.00;0.00;;;15.60;99.90;;;;;;5029712;28;20072;-89
2023/08/03 03:30:33;;;;;;;0.00;0.00;;;15.70;99.90;;;;;;5029685;28;20059;-89
2023/08/03 03:32:59;;;;;;;0.00;0.00;;;15.70;99.90;;;;;;5045902;28;20477;-89
2023/08/03 03:35:28;;;;;;;0.00;0.00;;;15.70;99.90;;;;;;5046061;28;20053;-89
2023/08/03 03:37:53;;;;;;;0.35;0.35;;;15.70;99.90;;;;;;5029992;28;20045;-89
2023/08/03 03:40:19;;;;;;;0.00;0.00;;;15.80;99.90;;;;;;5046120;28;20167;-88
2023/08/03 03:42:45;;;;;;;0.38;0.15;;;15.70;99.90;;;;;;5029854;28;20559;-88
2023/08/03 03:45:11;;;;;;;0.40;0.22;;;15.70;99.90;;;;;;5045922;28;20052;-89
2023/08/03 03:47:36;;;;;;;0.10;0.08;;;15.80;99.90;;;;;;5029866;28;20053;-88
2023/08/03 03:50:02;;;;;;;0.20;0.17;;;15.70;99.90;;;;;;5046330;28;20045;-89
2023/08/03 03:52:28;;;;;;;1.70;1.05;;;15.80;99.90;;;;;;5029231;28;20049;-89
2023/08/03 03:54:54;;;;;;;0.00;0.00;;;15.70;99.90;;;;;;5029584;28;20128;-89
2023/08/03 03:57:20;;;;;;;0.00;0.00;;;16.20;99.90;;;;;;5047765;28;20566;-88
2023/08/03 03:59:45;;;;;;;0.00;0.00;;;15.80;99.90;;;;;;5046045;28;20041;-88
2023/08/03 04:02:11;;;;;;;0.20;0.20;;;15.80;99.90;;;;;;5029395;28;20123;-88
2023/08/03 04:04:37;;;;;;;0.15;0.15;;;15.90;99.90;;;;;;5046498;28;20548;-88
2023/08/03 04:07:03;;;;;;;0.15;0.15;;;15.80;99.90;;;;;;5029601;28;20053;-88
2023/08/03 04:09:29;;;;;;;0.40;0.35;;;15.80;99.90;;;;;;5029424;28;20041;-88
2023/08/03 04:11:54;;;;;;;0.20;0.20;;;16.00;99.90;;;;;;5049258;28;20128;-88
2023/08/03 04:14:20;;;;;;;3.30;1.08;;;15.80;99.90;;;;;;5046955;28;20077;-88
2023/08/03 04:16:50;;;;;;;1.08;0.35;;;15.70;99.90;;;;;;5030563;28;20048;-88
2023/08/03 04:19:16;;;;;;;0.22;0.20;;;15.70;99.90;;;;;;5050508;28;20048;-88
2023/08/03 04:21:42;;;;;;;1.83;0.90;;;15.60;99.90;;;;;;5064588;28;20029;-88
2023/08/03 04:24:07;;;;;;;1.13;0.63;;;15.60;99.90;;;;;;5049894;28;20048;-88
2023/08/03 04:26:33;;;;;;;0.22;0.20;;;15.80;99.90;;;;;;5048467;28;20052;-88
2023/08/03 04:28:59;;;;;;;0.73;0.65;;;15.60;99.90;;;;;;5058324;28;20029;-88
2023/08/03 04:31:27;;;;;;;0.10;0.10;;;15.60;99.90;;;;;;5070851;28;20024;-88
2023/08/03 04:33:52;;;;;;;0.20;0.20;;;16.40;99.90;;;;;;5053072;28;20072;-88
2023/08/03 04:36:18;;;;;;;0.17;0.17;;;15.80;99.90;;;;;;5071087;28;20044;-88
2023/08/03 04:38:44;;;;;;;0.00;0.00;;;15.70;99.90;;;;;;5069030;28;20052;-88
2023/08/03 04:41:09;;;;;;;0.73;0.43;;;15.70;99.90;;;;;;5062297;28;20045;-89
2023/08/03 04:43:35;;;;;;;1.05;0.93;;;15.80;99.90;;;;;;5056740;28;20064;-88
2023/08/03 04:46:01;;;;;;;0.20;0.20;;;17.20;99.90;;;;;;5064979;28;20041;-89
2023/08/03 04:48:26;;;;;;;0.57;0.52;;;15.90;99.90;;;;;;5052964;28;20063;-88
2023/08/03 04:50:52;;;;;;;1.73;0.35;;;15.90;99.90;;;;;;5054564;28;20051;-88
2023/08/03 04:53:18;;;;;;;1.17;0.80;;;16.40;99.90;;;;;;5036387;28;20048;-88
2023/08/03 04:55:44;;;;;;;1.33;0.60;;;16.30;99.90;;;;;;5051041;28;20514;-88
2023/08/03 04:58:30;;;;;;;0.10;0.10;;;16.60;99.90;;;;;;5052486;28;20049;-89
2023/08/03 05:00:56;;;;;;;0.13;0.13;;;16.20;99.90;;;;;;5052385;28;20119;-90
2023/08/03 05:03:22;;;;;;;0.22;0.20;;;16.60;99.90;;;;;;5035434;28;20606;-89
2023/08/03 05:05:50;;;;;;;0.00;0.00;;;16.40;99.90;;;;;;5036441;28;20114;-89
2023/08/03 05:08:27;;;;;;;;;;;;;;;;;;;;;
2023/08/03 05:10:56;;;;;;;0.38;0.32;;;16.10;99.90;;;;;;5051831;28;20079;-89
2023/08/03 05:13:22;;;;;;;1.55;0.65;;;16.00;99.90;;;;;;5036262;28;20136;-90
2023/08/03 05:15:56;;;;;;;0.10;0.10;;;16.00;99.90;;;;;;5051274;28;20049;-89
2023/08/03 05:18:27;;;;;;;1.55;0.52;;;15.90;99.90;;;;;;5051407;28;20052;-90
2023/08/03 05:20:55;;;;;;;0.00;0.00;;;15.90;99.90;;;;;;5033045;28;20049;-90
2023/08/03 05:23:25;;;;;;;0.00;0.00;;;15.90;99.90;;;;;;5033382;28;20145;-90
2023/08/03 05:26:01;;;;;;;3.10;0.55;;;16.70;99.90;;;;;;5033190;28;20571;-90
2023/08/03 05:28:31;;;;;;;;;;;15.90;99.90;;;;;;5050021;28;20044;-90
2023/08/03 05:31:00;;;;;;;0.32;0.15;;;15.90;99.90;;;;;;5033693;28;19964;-90
2023/08/03 05:33:29;;;;;;;0.10;0.10;;;15.90;99.90;;;;;;5031965;28;20100;-90
2023/08/03 05:35:56;;;;;;;0.75;0.47;;;15.90;99.90;;;;;;5028542;28;20102;-90
2023/08/03 05:38:27;;;;;;;0.10;0.10;;;15.90;99.90;;;;;;5043851;28;20047;-90
2023/08/03 05:40:53;;;;;;;0.15;0.15;;;16.00;99.90;;;;;;5043682;28;20076;-90
2023/08/03 05:43:29;;;;;;;0.00;0.00;;;16.00;99.90;;;;;;5044109;28;20517;-90
2023/08/03 05:46:01;;;;;;;0.65;0.32;;;16.00;99.90;;;;;;5043926;28;20079;-90
2023/08/03 05:48:32;;;;;;;0.20;0.20;;;16.10;99.90;;;;;;5027339;28;20139;-90
2023/08/03 05:50:58;;;;;;;0.75;0.38;;;16.10;99.90;;;;;;5044241;28;20084;-89
2023/08/03 05:53:30;;;;;;;0.22;0.20;;;16.10;99.90;;;;;;5027213;28;20053;-90
2023/08/03 05:56:10;;;;;;;0.00;0.00;;;16.10;99.90;;;;;;5044387;28;20182;-90
2023/08/03 05:58:39;;;;;;;0.32;0.20;;;16.00;99.90;;;;;;5042720;28;20380;-90
2023/08/03 06:01:12;;;;;;;0.10;0.10;;;16.10;99.90;;;;;;5027538;28;20048;-90
2023/08/03 06:03:44;;;;;;;0.10;0.10;;;16.40;99.90;;;;;;5042720;28;20140;-90
2023/08/03 06:06:11;;;;;;;0.10;0.10;;;16.50;99.90;;;;;;5043894;28;20048;-90
2023/08/03 06:08:48;;;;;;;0.38;0.38;;;16.70;99.90;;;;;;5010776;28;20462;-89
2023/08/03 06:11:25;;;;;;;0.50;0.50;;;16.10;99.90;;;;;;5028592;28;20048;-89
2023/08/03 06:13:52;;;;;;;0.20;0.20;;;17.00;99.90;;;;;;5027051;28;20499;-89
2023/08/03 06:16:23;;;;;;;0.50;0.30;;;17.00;99.90;;;;;;5026635;28;20483;-90
2023/08/03 06:18:52;;;;;;;9.57;1.45;;;17.10;99.90;;;;;;5043171;28;20049;-90
2023/08/03 06:21:26;;;;;;;0.00;0.00;;;16.70;99.90;;;;;;5027243;28;20041;-90
2023/08/03 06:24:15;;;;;;;0.20;0.20;;;16.90;99.90;;;;;;5043560;28;20053;-89
2023/08/03 06:26:47;;;;;;;2.38;0.77;;;17.80;99.90;;;;;;5027028;28;20075;-90
2023/08/03 06:29:29;;;;;;;0.57;0.30;;;17.30;99.90;;;;;;5014922;28;20266;-89
2023/08/03 06:32:16;;;;;;;0.85;0.22;;;17.60;99.90;;;;;;5043407;28;20052;-89
2023/08/03 06:34:42;;;;;;;1.08;0.63;;;17.40;99.90;;;;;;5026512;28;20061;-89
2023/08/03 06:37:13;;;;;;;1.08;0.88;;;17.40;99.90;;;;;;5027420;28;20466;-89
2023/08/03 06:39:43;;;;;;;0.90;0.55;;;17.60;99.90;;;;;;5027643;28;20124;-89
2023/08/03 06:42:12;;;;;;;0.00;0.00;;;17.80;99.90;;;;;;5043449;28;20045;-90
2023/08/03 06:44:38;;;;;;;0.40;0.20;;;18.50;99.90;;;;;;5043108;28;20099;-90
2023/08/03 06:47:05;;;;;;;0.10;0.10;;;18.80;99.90;;;;;;5025775;28;20097;-89
2023/08/03 06:49:31;;;;;;;0.05;0.05;;;18.60;99.90;;;;;;5026467;28;20048;-89
2023/08/03 06:51:59;;;;;;;0.28;0.20;;;18.60;99.90;;;;;;5026155;28;20611;-90
2023/08/03 06:54:28;;;;;;;5.25;1.27;;;18.20;99.90;;;;;;5043871;28;20049;-89
2023/08/03 06:56:54;;;;;;;0.40;0.30;;;18.10;99.90;;;;;;5025827;28;20049;-89
2023/08/03 06:59:21;;;;;;;0.00;0.00;;;17.90;99.90;;;;;;5008531;28;20099;-89
2023/08/03 07:01:51;;;;;;;0.82;0.55;;;18.00;99.90;;;;;;5042347;28;20045;-90
2023/08/03 07:04:17;;;;;;;0.50;0.13;;;18.90;99.90;;;;;;5044132;28;20752;-90
2023/08/03 07:06:46;;;;;;;0.10;0.10;;;17.90;99.90;;;;;;5042099;28;20724;-89
2023/08/03 07:09:12;;;;;;;0.05;0.05;;;18.80;99.90;;;;;;5025423;28;20099;-89
2023/08/03 07:11:38;;;;;;;0.00;0.00;;;18.50;99.90;;;;;;5041957;28;20503;-89
2023/08/03 07:14:04;;;;;;;0.00;0.00;;;19.40;99.90;;;;;;5042506;28;20045;-90
2023/08/03 07:16:31;;;;;;;0.88;0.57;;;19.00;99.90;;;;;;5043424;28;20044;-89
2023/08/03 07:18:57;;;;;;;0.10;0.10;;;19.60;99.90;;;;;;5026338;28;20094;-89
2023/08/03 07:21:23;;;;;;;0.08;0.08;;;20.50;99.90;;;;;;5043000;28;20053;-89
2023/08/03 07:23:48;;;;;;;0.17;0.17;;;20.80;99.90;;;;;;5043704;28;20076;-90
2023/08/03 07:26:15;;;;;;;0.20;0.20;;;21.20;99.90;;;;;;5045108;28;20098;-90
2023/08/03 07:28:41;;;;;;;0.03;0.03;;;21.50;99.90;;;;;;5044662;28;20071;-90
2023/08/03 07:31:14;;;;;;;0.22;0.15;;;21.50;99.90;;;;;;5045611;28;20523;-90
2023/08/03 07:33:42;;;;;;;1.95;0.47;;;21.90;1.00;;;;;;5045250;28;20052;-90
2023/08/03 07:36:15;;;;;;;0.00;0.00;;;22.40;99.90;;;;;;5027701;28;20053;-89
2023/08/03 07:38:41;;;;;;;0.13;0.10;;;21.80;99.90;;;;;;5027030;28;20086;-89
2023/08/03 07:41:09;;;;;;;0.00;0.00;;;21.90;99.90;;;;;;5043042;28;20044;-89
2023/08/03 07:43:35;;;;;;;0.20;0.20;;;21.00;1.00;;;;;;5025590;28;20056;-89
2023/08/03 07:46:09;;;;;;;0.00;0.00;;;21.20;10.20;;;;;;5026058;28;20053;-90
2023/08/03 07:48:43;;;;;;;0.00;0.00;;;20.90;80.40;;;;;;5009276;28;20057;-90
2023/08/03 07:51:29;;;;;;;0.20;0.17;;;21.50;36.30;;;;;;5025891;28;20080;-90
2023/08/03 07:53:59;;;;;;;0.00;0.00;;;20.50;1.00;;;;;;5042980;28;20045;-90
2023/08/03 07:56:37;;;;;;;0.20;0.20;;;20.10;99.90;;;;;;5011102;28;20057;-90
2023/08/03 07:59:05;;;;;;;0.00;0.00;;;19.90;99.90;;;;;;5042039;28;20061;-90
2023/08/03 08:01:38;;;;;;;0.22;0.20;;;20.80;1.00;;;;;;5043857;28;20498;-90
2023/08/03 08:04:04;;;;;;;0.00;0.00;;;22.20;99.90;;;;;;5043861;28;20057;-90
2023/08/03 08:06:31;;;;;;;0.10;0.10;;;23.50;99.90;;;;;;5027825;28;20045;-90
2023/08/03 08:09:05;;;;;;;0.00;0.00;;;24.40;1.00;;;;;;5029498;28;20132;-90
2023/08/03 08:11:37;;;;;;;0.10;0.00;;;24.60;99.90;;;;;;5028729;28;20166;-90
2023/08/03 08:14:06;;;;;;;0.00;0.00;;;25.00;99.90;;;;;;5027501;28;20110;-90
2023/08/03 08:16:32;;;;;;;0.47;0.38;;;25.20;99.90;;;;;;5026784;28;20131;-90
2023/08/03 08:19:00;;;;;;;0.00;0.00;;;25.10;1.00;;;;;;5042896;28;20715;-90
2023/08/03 08:21:29;;;;;;;0.10;0.10;;;24.20;1.00;;;;;;5025329;28;20494;-90
2023/08/03 08:23:57;;;;;;;0.52;0.32;;;22.60;99.90;;;;;;5044436;28;20144;-90
2023/08/03 08:26:26;;;;;;;0.00;0.00;;;23.60;22.20;;;;;;5044834;28;20056;-89
2023/08/03 08:28:56;;;;;;;0.00;0.00;;;24.00;99.90;;;;;;5046528;28;20052;-90
2023/08/03 08:31:23;;;;;;;0.00;0.00;;;23.90;51.80;;;;;;5033041;28;20156;-89
2023/08/03 08:33:52;;;;;;;0.00;0.00;;;24.40;1.00;;;;;;5048288;28;20072;-90
2023/08/03 08:36:18;;;;;;;0.10;0.00;;;24.60;99.90;;;;;;5032867;28;20052;-90
2023/08/03 08:38:46;;;;;;;0.00;0.00;;;24.20;1.00;;;;;;5050751;28;20049;-90
2023/08/03 08:41:15;;;;;;;0.00;0.00;;;24.30;98.80;;;;;;5028514;28;20053;-90
2023/08/03 08:43:43;;;;;;;0.35;0.35;;;25.10;69.30;;;;;;5017760;28;20049;-90
2023/08/03 08:46:15;;;;;;;0.38;0.35;;;25.60;16.80;;;;;;5036075;28;20060;-90
2023/08/03 08:48:41;;;;;;;0.03;0.03;;;26.20;99.90;;;;;;5035435;28;20080;-90
2023/08/03 08:51:09;;;;;;;0.08;0.05;;;26.40;99.90;;;;;;5034963;28;20084;-90
2023/08/03 08:53:35;;;;;;;0.00;0.00;;;26.40;99.90;;;;;;5034595;28;20044;-90
2023/08/03 08:56:05;;;;;;;0.00;0.00;;;26.50;99.90;;;;;;5050042;28;20101;-90
2023/08/03 08:58:33;;;;;;;8.57;0.95;;;25.80;1.00;;;;;;5029441;28;20553;-90
2023/08/03 09:01:05;;;;;;;0.00;0.00;;;25.10;71.90;;;;;;5029568;28;20049;-90
2023/08/03 09:03:55;;;;;;;0.00;0.00;;;24.00;1.00;;;;;;5012475;28;20045;-90
2023/08/03 09:06:21;;;;;;;0.00;0.00;;;24.80;1.00;;;;;;5013677;28;20041;-90
2023/08/03 09:09:04;;;;;;;0.68;0.15;;;25.90;99.90;;;;;;5012984;28;20385;-91
2023/08/03 09:11:43;;;;;;;0.00;0.00;;;26.80;99.90;;;;;;5012692;28;20049;-91
2023/08/03 09:14:16;;;;;;;0.85;0.28;;;27.30;31.20;;;;;;5013179;28;20108;-90
2023/08/03 09:16:45;;;;;;;5.65;0.38;;;27.40;1.00;;;;;;5013297;28;20045;-91
2023/08/03 09:19:32;;;;;;;0.17;0.08;;;27.30;99.90;;;;;;5030089;28;20065;-91
2023/08/03 09:22:04;;;;;;;5.47;0.90;;;27.30;99.90;;;;;;5014619;28;20136;-90
2023/08/03 09:24:58;;;;;;;;;;;27.20;1.00;;;;;;5033346;28;20060;-91
2023/08/03 09:27:29;;;;;;;0.75;0.55;;;27.20;99.90;;;;;;5029191;28;20016;-90
2023/08/03 09:30:03;;;;;;;0.00;0.00;;;26.30;99.90;;;;;;5014803;28;20499;-90
2023/08/03 09:32:35;;;;;;;0.00;0.00;;;26.70;99.90;;;;;;5030276;28;20049;-91
2023/08/03 09:35:33;;;;;;;0.98;0.45;;;27.70;99.90;;;;;;5028297;28;20116;-90
2023/08/03 09:38:00;;;;;;;0.13;0.13;;;28.70;99.90;;;;;;5012005;28;20061;-91
2023/08/03 09:40:28;;;;;;;0.00;0.00;;;29.60;1.00;;;;;;5028173;28;20045;-91
2023/08/03 09:42:56;;;;;;;1.88;0.52;;;28.90;99.90;;;;;;5029957;28;20045;-91
2023/08/03 09:45:23;;;;;;;0.00;0.00;;;27.40;99.90;;;;;;5011940;28;20057;-91
2023/08/03 09:47:50;;;;;;;0.30;0.25;;;26.70;99.90;;;;;;5028728;28;20372;-92
2023/08/03 09:50:17;;;;;;;0.10;0.10;;;26.30;99.90;;;;;;5028297;28;20786;-92
2023/08/03 09:52:49;;;;;;;0.40;0.20;;;25.90;99.90;;;;;;5029190;28;20049;-90
2023/08/03 09:55:27;;;;;;;0.20;0.10;;;25.50;99.90;;;;;;5029586;28;20049;-91
2023/08/03 09:58:14;;;;;;;0.00;0.00;;;25.00;1.00;;;;;;5029867;28;20060;-91
2023/08/03 10:00:43;;;;;;;0.63;0.10;;;24.60;99.90;;;;;;5031294;28;20045;-91
2023/08/03 10:03:18;;;;;;;0.00;0.00;;;24.40;99.90;;;;;;5014984;28;20119;-91
2023/08/03 10:05:48;;;;;;;1.88;0.85;;;24.10;99.90;;;;;;5014092;28;20053;-91
2023/08/03 10:08:21;;;;;;;0.10;0.10;;;23.30;99.90;;;;;;5013430;28;20053;-91
2023/08/03 10:10:52;;;;;;;0.00;0.00;;;23.10;19.30;;;;;;5012832;28;20041;-91
2023/08/03 10:13:18;;;;;;;0.00;0.00;;;22.90;99.90;;;;;;5028870;28;20496;-91
2023/08/03 10:15:44;;;;;;;0.32;0.20;;;22.30;99.90;;;;;;5028351;28;20037;-91
2023/08/03 10:18:10;;;;;;;0.00;0.00;;;22.20;1.00;;;;;;5028201;28;20110;-91
2023/08/03 10:20:38;;;;;;;2.08;0.13;;;22.30;99.90;;;;;;5029109;28;20132;-91
2023/08/03 10:23:11;;;;;;;0.00;0.00;;;22.60;99.90;;;;;;5049151;28;20938;-91
2023/08/03 10:26:00;;;;;;;0.00;0.00;;;23.10;54.10;;;;;;5031025;28;20135;-88
2023/08/03 10:28:27;;;;;;;3.40;1.08;;;23.70;99.90;;;;;;5044803;28;20055;-88
2023/08/03 10:31:19;;;;;;;0.22;0.20;;;24.00;99.90;;;;;;5029592;28;20045;-88
2023/08/03 10:33:53;;;;;;;1.98;0.65;;;24.40;99.90;;;;;;5042654;28;20071;-88
2023/08/03 10:36:31;;;;;;;0.00;0.00;;;24.80;99.90;;;;;;5043895;28;20064;-88
2023/08/03 10:39:02;;;;;;;0.10;0.10;;;25.30;99.00;;;;;;5043534;28;20060;-88
2023/08/03 10:41:38;;;;;;;0.95;0.17;;;25.60;99.90;;;;;;5043169;28;20029;-88
2023/08/03 10:44:12;;;;;;;1.60;0.55;;;25.30;1.00;;;;;;5026127;28;20071;-88
2023/08/03 10:46:37;;;;;;;7.68;0.65;;;25.00;1.00;;;;;;5042060;28;20072;-88
2023/08/03 10:49:44;;;;;;;0.45;0.43;;;25.00;99.90;;;;;;5043354;28;20045;-88
2023/08/03 10:52:19;;;;;;;;;;;25.30;1.00;;;;;;5043065;28;20067;-88
2023/08/03 10:54:45;;;;;;;0.00;0.00;;;25.50;1.00;;;;;;5043397;28;20367;-88
2023/08/03 10:57:19;;;;;;;0.47;0.25;;;25.20;1.00;;;;;;5025906;28;20496;-88
2023/08/03 10:59:50;;;;;;;0.00;0.00;;;24.90;99.90;;;;;;5043601;28;20084;-88
2023/08/03 11:02:21;;;;;;;0.55;0.38;;;24.50;1.00;;;;;;5042133;28;20053;-88
2023/08/03 11:04:55;;;;;;;0.00;0.00;;;24.90;99.90;;;;;;5042140;28;20502;-88
2023/08/03 11:07:23;;;;;;;0.03;0.03;;;25.70;56.40;;;;;;5041868;28;20120;-88
2023/08/03 11:09:51;;;;;;;0.00;0.00;;;26.10;99.90;;;;;;5041787;28;20049;-89
2023/08/03 11:12:18;;;;;;;0.57;0.35;;;25.90;99.90;;;;;;5043821;28;20036;-86
2023/08/03 11:14:45;;;;;;;0.47;0.47;;;26.20;99.90;;;;;;5025356;28;20055;-87
2023/08/03 11:17:13;;;;;;;1.25;0.35;;;26.20;99.90;;;;;;5043773;28;20041;-87
2023/08/03 11:19:39;;;;;;;0.00;0.00;;;26.30;99.90;;;;;;5042016;28;20045;-87
2023/08/03 11:22:05;;;;;;;2.95;0.68;;;26.20;99.90;;;;;;5043661;28;20059;-87
2023/08/03 11:24:32;;;;;;;0.25;0.20;;;25.40;99.90;;;;;;5043639;28;20051;-87
2023/08/03 11:27:02;;;;;;;0.65;0.30;;;24.80;99.90;;;;;;5041843;28;20120;-87
2023/08/03 11:29:28;;;;;;;0.13;0.10;;;24.50;99.90;;;;;;5043479;28;20449;-87
2023/08/03 11:31:53;;;;;;;0.00;0.00;;;24.60;99.90;;;;;;5043694;28;20045;-87
2023/08/03 11:34:20;;;;;;;0.00;0.00;;;24.80;99.90;;;;;;5041821;28;20065;-87
2023/08/03 11:36:51;;;;;;;1.38;0.85;;;25.40;99.90;;;;;;5043934;28;20063;-87
2023/08/03 11:39:18;;;;;;;0.30;0.30;;;26.20;99.90;;;;;;5041672;28;20071;-87
2023/08/03 11:41:45;;;;;;;0.00;0.00;;;26.20;99.90;;;;;;5042023;28;20428;-87
2023/08/03 11:44:10;;;;;;;0.00;0.00;;;25.70;99.90;;;;;;5043386;28;20058;-87
2023/08/03 11:46:36;;;;;;;1.13;0.52;;;25.10;99.90;;;;;;5042272;28;20603;-87
2023/08/03 11:49:03;;;;;;;1.27;0.20;;;24.80;99.90;;;;;;5041905;28;20120;-87
2023/08/03 11:51:33;;;;;;;0.00;0.00;;;24.80;99.90;;;;;;5025142;28;20045;-87
2023/08/03 11:54:12;;;;;;;0.10;0.10;;;24.60;99.90;;;;;;5041590;28;20052;-87
2023/08/03 11:56:39;;;;;;;0.35;0.20;;;24.50;99.90;;;;;;5033811;28;20056;-87
2023/08/03 11:59:08;;;;;;;0.40;0.17;;;23.90;99.90;;;;;;5043008;28;20102;-86
2023/08/03 12:01:42;;;;;;;0.00;0.00;;;23.60;99.90;;;;;;5043081;28;20492;-87
2023/08/03 12:04:09;;;;;;;0.00;0.00;;;23.20;99.90;;;;;;5042570;28;20045;-86
2023/08/03 12:06:51;;;;;;;0.00;0.00;;;23.60;99.90;;;;;;5041461;28;20419;-87
2023/08/03 12:09:28;;;;;;;0.05;0.05;;;24.50;99.90;;;;;;5041823;28;20088;-87
2023/08/03 12:12:03;;;;;;;0.00;0.00;;;24.30;99.90;;;;;;5041591;28;20130;-86
2023/08/03 12:14:29;;;;;;;3.50;0.65;;;23.60;99.90;;;;;;5024885;28;20056;-86
2023/08/03 12:16:55;;;;;;;0.47;0.30;;;23.50;99.90;;;;;;5041822;28;20112;-87
2023/08/03 12:19:21;;;;;;;0.10;0.10;;;23.00;99.90;;;;;;5041174;28;20118;-86
2023/08/03 12:21:47;;;;;;;0.10;0.10;;;22.50;99.90;;;;;;5041848;28;20060;-86
2023/08/03 12:24:13;;;;;;;0.22;0.20;;;23.50;99.90;;;;;;5025080;28;20049;-86
2023/08/03 12:26:40;;;;;;;0.10;0.10;;;25.00;99.90;;;;;;5041777;28;20037;-86
2023/08/03 12:29:06;;;;;;;2.08;1.08;;;26.10;99.90;;;;;;5041447;28;20051;-86
2023/08/03 12:31:32;;;;;;;0.28;0.28;;;25.70;99.90;;;;;;5043042;28;20170;-86
2023/08/03 12:33:59;;;;;;;0.00;0.00;;;26.60;99.90;;;;;;5042807;28;20061;-86
2023/08/03 12:36:26;;;;;;;0.00;0.00;;;26.60;99.90;;;;;;5041225;28;20059;-86
2023/08/03 12:38:52;;;;;;;0.60;0.32;;;26.90;99.90;;;;;;5041476;28;20526;-86
2023/08/03 12:41:19;;;;;;;0.00;0.00;;;27.70;99.90;;;;;;5042509;28;20120;-86
2023/08/03 12:43:45;;;;;;;0.00;0.00;;;28.00;99.90;;;;;;5040608;28;20056;-87
2023/08/03 12:46:11;;;;;;;0.50;0.38;;;27.20;99.90;;;;;;5042249;28;20045;-87
2023/08/03 12:48:37;;;;;;;0.20;0.20;;;26.70;80.80;;;;;;5024065;28;20106;-87
2023/08/03 12:51:02;;;;;;;0.10;0.10;;;26.20;99.90;;;;;;5042105;28;20103;-86
2023/08/03 12:53:28;;;;;;;0.00;0.00;;;25.10;99.90;;;;;;5040947;28;20045;-86
2023/08/03 12:55:54;;;;;;;0.10;0.10;;;23.80;99.90;;;;;;5042366;28;20052;-86
2023/08/03 12:58:20;;;;;;;0.30;0.25;;;23.50;99.90;;;;;;5040660;28;20132;-86